Time;durP1;ratioP1;P1;durP2;ratioP2;P2;SDS_P1;SDS_P2;PMS_P1;PMS_P2;Temp;Humidity;BMP_temperature;BMP_pressure;BME280_temperature;BME280_humidity;BME280_pressure;Samples;Min_cycle;Max_cycle;Signal;HPM_P1;HPM_P2
2024/01/29 00:02:02;;;;;;;5.35;3.28;;;5.70;99.90;;;;;;4849051;29;20457;-79
2024/01/29 00:04:27;;;;;;;4.70;3.00;;;5.70;99.90;;;;;;4832965;29;20038;-78
2024/01/29 00:06:54;;;;;;;3.70;2.92;;;5.70;99.90;;;;;;4846578;29;20093;-78
2024/01/29 00:09:20;;;;;;;3.75;2.95;;;5.70;99.90;;;;;;4848070;29;20054;-79
2024/01/29 00:11:45;;;;;;;3.15;2.47;;;5.70;99.90;;;;;;4849058;29;20077;-80
2024/01/29 00:14:11;;;;;;;3.97;3.08;;;5.80;99.90;;;;;;4847695;29;20050;-79
2024/01/29 00:16:37;;;;;;;5.50;2.72;;;5.90;99.90;;;;;;4833178;29;20121;-78
2024/01/29 00:19:04;;;;;;;3.45;2.70;;;5.90;99.90;;;;;;4849216;29;20040;-78
2024/01/29 00:21:29;;;;;;;3.38;2.53;;;6.00;99.90;;;;;;4847706;29;20034;-81
2024/01/29 00:23:59;;;;;;;3.63;2.47;;;6.00;99.90;;;;;;4834017;29;20058;-80
2024/01/29 00:26:25;;;;;;;3.65;2.95;;;6.10;99.90;;;;;;4848213;29;20049;-78
2024/01/29 00:28:51;;;;;;;3.47;3.05;;;6.10;99.90;;;;;;4833799;29;20437;-80
2024/01/29 00:31:16;;;;;;;3.22;2.80;;;6.20;99.90;;;;;;4832965;29;20034;-80
2024/01/29 00:33:43;;;;;;;4.72;2.70;;;5.50;99.90;;;;;;4832880;29;20054;-80
2024/01/29 00:36:08;;;;;;;4.97;2.95;;;6.20;99.90;;;;;;4833950;29;20038;-80
2024/01/29 00:38:34;;;;;;;3.08;2.78;;;6.30;99.90;;;;;;4832779;29;20058;-80
2024/01/29 00:41:00;;;;;;;3.33;2.83;;;6.30;99.90;;;;;;4848802;29;20079;-79
2024/01/29 00:43:25;;;;;;;3.60;2.63;;;6.30;99.90;;;;;;4833129;29;20034;-78
2024/01/29 00:45:51;;;;;;;5.78;2.85;;;6.40;99.90;;;;;;4833939;29;20407;-78
2024/01/29 00:48:17;;;;;;;3.33;2.50;;;6.30;99.90;;;;;;4833128;29;20042;-78
2024/01/29 00:50:42;;;;;;;4.43;3.10;;;6.30;99.90;;;;;;4833230;29;20048;-79
2024/01/29 00:53:08;;;;;;;2.60;2.40;;;6.30;99.90;;;;;;4833357;29;20046;-79
2024/01/29 00:55:34;;;;;;;3.58;2.72;;;6.30;99.90;;;;;;4832676;29;20053;-81
2024/01/29 00:57:59;;;;;;;2.85;2.40;;;6.40;99.90;;;;;;4833967;29;20046;-81
2024/01/29 01:00:25;;;;;;;3.40;3.08;;;6.30;99.90;;;;;;4832360;29;20143;-81
2024/01/29 01:02:51;;;;;;;3.42;3.13;;;6.40;99.90;;;;;;4833453;29;20054;-82
2024/01/29 01:05:16;;;;;;;3.65;2.97;;;6.40;99.90;;;;;;4832564;29;20133;-78
2024/01/29 01:07:42;;;;;;;4.07;2.60;;;6.40;99.90;;;;;;4833056;29;20049;-80
2024/01/29 01:10:08;;;;;;;5.13;2.70;;;6.40;99.90;;;;;;4833279;29;20045;-80
2024/01/29 01:12:34;;;;;;;2.88;2.38;;;6.40;99.90;;;;;;4832494;29;20090;-83
2024/01/29 01:14:59;;;;;;;5.10;3.00;;;6.30;99.90;;;;;;4833530;29;20117;-80
2024/01/29 01:17:25;;;;;;;3.00;2.67;;;6.40;99.90;;;;;;4832635;29;20054;-80
2024/01/29 01:19:51;;;;;;;3.33;2.80;;;6.40;99.90;;;;;;4833696;29;20496;-80
2024/01/29 01:22:16;;;;;;;5.88;2.85;;;6.40;99.90;;;;;;4847427;29;20065;-80
2024/01/29 01:24:42;;;;;;;4.95;2.53;;;6.40;99.90;;;;;;4833146;29;20057;-81
2024/01/29 01:27:09;;;;;;;3.70;3.08;;;6.40;99.90;;;;;;4832837;29;20038;-80
2024/01/29 01:29:34;;;;;;;3.42;2.72;;;6.40;99.90;;;;;;4832371;29;20514;-81
2024/01/29 01:32:00;;;;;;;5.03;2.67;;;6.30;99.90;;;;;;4832753;29;20090;-80
2024/01/29 01:34:26;;;;;;;5.65;2.83;;;6.30;99.90;;;;;;4832167;29;20125;-79
2024/01/29 01:36:51;;;;;;;2.95;2.65;;;6.30;99.90;;;;;;4848049;29;20042;-79
2024/01/29 01:39:17;;;;;;;6.30;3.03;;;6.30;99.90;;;;;;4832500;29;20139;-80
2024/01/29 01:41:50;;;;;;;3.85;3.40;;;6.30;99.90;;;;;;4848424;29;20049;-80
2024/01/29 01:44:16;;;;;;;3.00;2.63;;;6.30;99.90;;;;;;4832207;29;20918;-79
2024/01/29 01:46:41;;;;;;;3.47;2.60;;;6.50;99.90;;;;;;4847388;29;20046;-81
2024/01/29 01:49:07;;;;;;;3.63;2.72;;;6.20;99.90;;;;;;4848289;29;20030;-79
2024/01/29 01:51:33;;;;;;;3.42;2.60;;;6.20;99.90;;;;;;4832074;29;20411;-80
2024/01/29 01:54:02;;;;;;;4.25;2.53;;;6.30;99.90;;;;;;4836398;29;20062;-80
2024/01/29 01:56:28;;;;;;;4.63;2.83;;;6.20;99.90;;;;;;4847134;29;20048;-79
2024/01/29 01:58:56;;;;;;;3.38;3.00;;;6.20;99.90;;;;;;4832499;29;20509;-79
2024/01/29 02:01:22;;;;;;;3.38;3.00;;;6.20;99.90;;;;;;4840462;29;20042;-79
2024/01/29 02:03:48;;;;;;;4.47;2.83;;;6.20;99.90;;;;;;4845588;29;20061;-80
2024/01/29 02:06:14;;;;;;;9.75;3.30;;;6.10;99.90;;;;;;4833163;29;20057;-80
2024/01/29 02:08:41;;;;;;;4.28;2.83;;;6.00;99.90;;;;;;4832035;29;20418;-80
2024/01/29 02:11:06;;;;;;;4.47;3.28;;;6.40;99.90;;;;;;4832552;29;20075;-80
2024/01/29 02:13:33;;;;;;;4.00;3.08;;;6.00;99.90;;;;;;4831598;29;20045;-80
2024/01/29 02:16:00;;;;;;;4.13;2.70;;;5.90;99.90;;;;;;4833047;29;20082;-79
2024/01/29 02:18:26;;;;;;;3.30;2.92;;;6.10;99.90;;;;;;4832235;29;20045;-81
2024/01/29 02:20:51;;;;;;;3.78;3.03;;;5.90;99.90;;;;;;4831900;29;20432;-79
2024/01/29 02:23:17;;;;;;;3.13;2.83;;;6.00;99.90;;;;;;4847962;29;20086;-80
2024/01/29 02:25:43;;;;;;;4.45;2.97;;;6.00;99.90;;;;;;4847099;29;20069;-79
2024/01/29 02:28:08;;;;;;;5.38;2.90;;;5.90;99.90;;;;;;4847845;29;20110;-79
2024/01/29 02:30:34;;;;;;;5.03;3.05;;;5.90;99.90;;;;;;4831635;29;20042;-79
2024/01/29 02:33:00;;;;;;;4.82;2.95;;;5.90;99.90;;;;;;4832313;29;20077;-79
2024/01/29 02:35:25;;;;;;;3.75;2.92;;;5.80;99.90;;;;;;4847628;29;20046;-78
2024/01/29 02:37:51;;;;;;;5.22;3.30;;;5.80;99.90;;;;;;4847450;29;20051;-80
2024/01/29 02:40:17;;;;;;;4.40;3.15;;;5.80;99.90;;;;;;4832273;29;20493;-79
2024/01/29 02:42:43;;;;;;;3.22;2.88;;;5.70;99.90;;;;;;4831429;29;20046;-78
2024/01/29 02:45:08;;;;;;;4.28;2.92;;;5.70;99.90;;;;;;4844778;29;20045;-79
2024/01/29 02:47:34;;;;;;;5.88;3.10;;;5.70;99.90;;;;;;4851052;29;20064;-79
2024/01/29 02:50:00;;;;;;;3.35;2.90;;;5.80;99.90;;;;;;4844187;29;20042;-79
2024/01/29 02:52:25;;;;;;;2.92;2.63;;;5.70;99.90;;;;;;4834849;29;20102;-79
2024/01/29 02:54:51;;;;;;;4.55;2.95;;;5.70;99.90;;;;;;4835132;29;20048;-79
2024/01/29 02:57:23;;;;;;;3.40;2.83;;;5.70;99.90;;;;;;4835123;29;20054;-79
2024/01/29 02:59:52;;;;;;;3.95;2.63;;;5.60;99.90;;;;;;4849717;29;20050;-79
2024/01/29 03:02:17;;;;;;;4.18;3.10;;;5.60;99.90;;;;;;4835057;29;20050;-80
2024/01/29 03:04:43;;;;;;;4.03;3.00;;;5.60;99.90;;;;;;4849615;29;20098;-79
2024/01/29 03:07:09;;;;;;;3.35;3.03;;;5.60;99.90;;;;;;4835752;29;20049;-79
2024/01/29 03:09:35;;;;;;;3.65;2.97;;;5.50;99.90;;;;;;4850232;29;20106;-79
2024/01/29 03:12:01;;;;;;;4.20;3.53;;;5.60;99.90;;;;;;4834816;29;20084;-78
2024/01/29 03:14:27;;;;;;;2.85;2.55;;;5.60;99.90;;;;;;4850220;29;20038;-79
2024/01/29 03:16:52;;;;;;;3.53;2.80;;;5.60;99.90;;;;;;4849756;29;20060;-79
2024/01/29 03:19:18;;;;;;;4.40;3.20;;;5.60;99.90;;;;;;4835292;29;20042;-77
2024/01/29 03:21:44;;;;;;;3.97;3.08;;;5.60;99.90;;;;;;4834278;29;20137;-79
2024/01/29 03:24:10;;;;;;;4.25;2.92;;;5.60;99.90;;;;;;4835443;29;20095;-78
2024/01/29 03:26:36;;;;;;;3.72;3.35;;;5.60;99.90;;;;;;4849393;29;20050;-79
2024/01/29 03:29:02;;;;;;;4.68;3.55;;;5.50;99.90;;;;;;4834491;29;20088;-79
2024/01/29 03:31:28;;;;;;;4.47;3.22;;;5.50;99.90;;;;;;4838080;29;20371;-80
2024/01/29 03:33:54;;;;;;;4.07;3.10;;;5.60;99.90;;;;;;4834214;29;20057;-80
2024/01/29 03:36:19;;;;;;;4.85;3.17;;;5.50;99.90;;;;;;4850736;29;20042;-78
2024/01/29 03:38:45;;;;;;;3.95;2.90;;;5.50;99.90;;;;;;4846375;29;20045;-80
2024/01/29 03:41:12;;;;;;;4.47;3.33;;;5.50;99.90;;;;;;4835029;29;20073;-79
2024/01/29 03:43:37;;;;;;;3.72;3.15;;;5.40;99.90;;;;;;4833755;29;20038;-80
2024/01/29 03:46:03;;;;;;;4.47;3.30;;;5.40;99.90;;;;;;4849577;29;20057;-80
2024/01/29 03:48:29;;;;;;;4.30;3.47;;;5.30;99.90;;;;;;4834375;29;20101;-80
2024/01/29 03:50:55;;;;;;;5.72;3.30;;;5.40;99.90;;;;;;4848874;29;20109;-80
2024/01/29 03:53:20;;;;;;;3.35;3.03;;;5.40;99.90;;;;;;4834760;29;20042;-80
2024/01/29 03:55:47;;;;;;;4.18;2.97;;;5.30;99.90;;;;;;4832574;29;20080;-79
2024/01/29 03:58:13;;;;;;;3.70;3.05;;;5.40;99.90;;;;;;4834863;29;20141;-81
2024/01/29 04:00:39;;;;;;;3.67;2.95;;;5.30;99.90;;;;;;4833269;29;20073;-81
2024/01/29 04:03:06;;;;;;;4.13;3.17;;;5.40;99.90;;;;;;4833965;29;20053;-81
2024/01/29 04:05:32;;;;;;;3.58;3.28;;;5.40;99.90;;;;;;4842690;29;20048;-80
2024/01/29 04:07:58;;;;;;;4.15;2.97;;;5.40;99.90;;;;;;4834088;29;20468;-80
2024/01/29 04:10:23;;;;;;;7.43;3.03;;;5.40;99.90;;;;;;4834007;29;20041;-82
2024/01/29 04:12:49;;;;;;;4.55;3.03;;;5.40;99.90;;;;;;4833374;29;20058;-80
2024/01/29 04:15:15;;;;;;;3.67;3.33;;;5.40;99.90;;;;;;4834574;29;20053;-80
2024/01/29 04:17:40;;;;;;;3.83;3.25;;;5.40;99.90;;;;;;4833303;29;20054;-79
2024/01/29 04:20:07;;;;;;;6.15;3.42;;;5.30;99.90;;;;;;4834230;29;20515;-78
2024/01/29 04:22:33;;;;;;;4.75;3.05;;;5.30;99.90;;;;;;4833284;29;20143;-81
2024/01/29 04:25:06;;;;;;;3.70;3.20;;;5.30;99.90;;;;;;4848471;29;20046;-79
2024/01/29 04:27:32;;;;;;;3.55;3.20;;;5.30;99.90;;;;;;4834048;29;20042;-80
2024/01/29 04:29:57;;;;;;;5.40;3.38;;;5.40;99.90;;;;;;4845455;29;20081;-79
2024/01/29 04:32:23;;;;;;;4.88;3.63;;;5.20;99.90;;;;;;4847914;29;20089;-82
2024/01/29 04:34:49;;;;;;;3.78;3.40;;;5.20;99.90;;;;;;4831518;29;20042;-80
2024/01/29 04:37:15;;;;;;;5.80;3.63;;;5.10;99.90;;;;;;4832063;29;20046;-80
2024/01/29 04:39:41;;;;;;;4.95;3.53;;;5.10;99.90;;;;;;4831916;29;20088;-79
2024/01/29 04:42:07;;;;;;;4.10;3.60;;;5.10;99.90;;;;;;4848224;29;20045;-80
2024/01/29 04:44:33;;;;;;;5.78;3.55;;;5.20;99.90;;;;;;4833203;29;20046;-80
2024/01/29 04:46:59;;;;;;;3.50;3.20;;;5.20;99.90;;;;;;4832196;29;20046;-80
2024/01/29 04:49:25;;;;;;;4.90;3.45;;;5.20;99.90;;;;;;4849091;29;20818;-80
2024/01/29 04:51:51;;;;;;;6.07;3.30;;;5.30;99.90;;;;;;4847683;29;20083;-79
2024/01/29 04:54:17;;;;;;;3.83;3.53;;;5.10;99.90;;;;;;4849211;29;20058;-79
2024/01/29 04:56:42;;;;;;;4.00;3.58;;;5.10;99.90;;;;;;4832931;29;20048;-79
2024/01/29 04:59:08;;;;;;;3.78;3.40;;;5.00;99.90;;;;;;4833139;29;20485;-79
2024/01/29 05:01:34;;;;;;;4.35;3.42;;;5.00;99.90;;;;;;4833316;29;20127;-80
2024/01/29 05:04:00;;;;;;;4.47;3.72;;;5.00;99.90;;;;;;4832723;29;20049;-79
2024/01/29 05:06:26;;;;;;;4.32;3.30;;;5.00;99.90;;;;;;4848441;29;20045;-80
2024/01/29 05:08:51;;;;;;;4.03;3.42;;;4.90;99.90;;;;;;4831652;29;20052;-79
2024/01/29 05:11:17;;;;;;;5.75;3.55;;;4.80;99.90;;;;;;4833558;29;20045;-80
2024/01/29 05:13:43;;;;;;;5.53;3.63;;;4.70;99.90;;;;;;4847738;29;20042;-78
2024/01/29 05:16:13;;;;;;;3.92;3.53;;;4.70;99.90;;;;;;4833095;29;20038;-79
2024/01/29 05:18:39;;;;;;;5.60;3.30;;;4.80;99.90;;;;;;4848563;29;20078;-80
2024/01/29 05:21:05;;;;;;;9.02;4.25;;;4.80;99.90;;;;;;4847081;29;20065;-79
2024/01/29 05:23:30;;;;;;;4.60;3.42;;;4.80;99.90;;;;;;4833980;29;20117;-80
2024/01/29 05:25:56;;;;;;;4.15;3.60;;;4.80;99.90;;;;;;4831916;29;20074;-79
2024/01/29 05:28:22;;;;;;;4.68;3.70;;;4.90;99.90;;;;;;4833880;29;20125;-80
2024/01/29 05:30:51;;;;;;;5.00;3.58;;;5.10;99.90;;;;;;4832659;29;20056;-80
2024/01/29 05:33:16;;;;;;;3.90;3.50;;;4.90;99.90;;;;;;4833351;29;20053;-81
2024/01/29 05:35:42;;;;;;;3.95;3.33;;;5.00;99.90;;;;;;4832367;29;20058;-81
2024/01/29 05:38:08;;;;;;;3.85;3.50;;;4.90;99.90;;;;;;4847819;29;20068;-82
2024/01/29 05:40:33;;;;;;;4.47;4.07;;;4.90;99.90;;;;;;4832837;29;20072;-80
2024/01/29 05:42:59;;;;;;;5.07;3.58;;;4.90;99.90;;;;;;4831718;29;20085;-79
2024/01/29 05:45:25;;;;;;;5.13;3.67;;;5.00;99.90;;;;;;4848792;29;20041;-83
2024/01/29 05:47:50;;;;;;;5.03;3.85;;;4.90;99.90;;;;;;4832215;29;20133;-79
2024/01/29 05:50:16;;;;;;;4.45;3.70;;;4.90;99.90;;;;;;4847775;29;20082;-82
2024/01/29 05:52:42;;;;;;;4.07;3.63;;;5.00;99.90;;;;;;4832506;29;20038;-78
2024/01/29 05:55:09;;;;;;;4.40;4.00;;;5.00;99.90;;;;;;4831973;29;20129;-82
2024/01/29 05:57:34;;;;;;;4.30;3.80;;;5.00;99.90;;;;;;4833500;29;20042;-80
2024/01/29 06:00:00;;;;;;;4.97;3.50;;;5.00;99.90;;;;;;4831561;29;20113;-79
2024/01/29 06:02:26;;;;;;;4.63;3.75;;;5.00;99.90;;;;;;4848256;29;20113;-79
2024/01/29 06:04:52;;;;;;;7.30;3.63;;;5.00;99.90;;;;;;4831616;29;20054;-79
2024/01/29 06:07:17;;;;;;;4.97;3.67;;;5.00;99.90;;;;;;4832845;29;20491;-79
2024/01/29 06:09:43;;;;;;;3.53;3.22;;;5.00;99.90;;;;;;4847256;29;20060;-79
2024/01/29 06:12:08;;;;;;;5.25;3.90;;;5.10;99.90;;;;;;4832372;29;20038;-80
2024/01/29 06:14:34;;;;;;;5.20;4.22;;;5.10;99.90;;;;;;4832587;29;20054;-80
2024/01/29 06:17:00;;;;;;;4.20;3.83;;;5.00;99.90;;;;;;4832053;29;20049;-82
2024/01/29 06:19:26;;;;;;;4.25;3.80;;;5.30;99.90;;;;;;4834384;29;20057;-78
2024/01/29 06:21:51;;;;;;;4.80;3.88;;;5.10;99.90;;;;;;4834914;29;20042;-79
2024/01/29 06:24:17;;;;;;;4.95;4.00;;;5.00;99.90;;;;;;4835943;29;20057;-80
2024/01/29 06:26:43;;;;;;;6.13;3.92;;;5.10;99.90;;;;;;4851197;29;20042;-80
2024/01/29 06:29:09;;;;;;;5.38;4.88;;;5.20;99.90;;;;;;4835410;29;20052;-80
2024/01/29 06:31:39;;;;;;;5.00;4.35;;;5.00;99.90;;;;;;4835673;29;20053;-79
2024/01/29 06:34:06;;;;;;;4.97;4.10;;;4.90;99.90;;;;;;4834515;29;20456;-80
2024/01/29 06:36:32;;;;;;;4.88;4.00;;;5.00;99.90;;;;;;4835976;29;20050;-81
2024/01/29 06:39:00;;;;;;;4.53;4.13;;;5.00;99.90;;;;;;4849833;29;20046;-80
2024/01/29 06:41:27;;;;;;;6.35;3.92;;;4.90;99.90;;;;;;4851380;29;20050;-79
2024/01/29 06:43:54;;;;;;;5.80;3.83;;;4.90;99.90;;;;;;4835224;29;20046;-78
2024/01/29 06:46:20;;;;;;;6.38;4.32;;;5.00;99.90;;;;;;4835051;29;20083;-85
2024/01/29 06:48:46;;;;;;;5.88;3.80;;;5.30;99.90;;;;;;4835378;29;20053;-80
2024/01/29 06:51:12;;;;;;;6.00;4.13;;;4.90;99.90;;;;;;4847691;29;20050;-80
2024/01/29 06:53:38;;;;;;;5.10;4.20;;;4.90;99.90;;;;;;4835772;29;20456;-80
2024/01/29 06:56:05;;;;;;;4.47;4.07;;;5.00;99.90;;;;;;4849681;29;20058;-79
2024/01/29 06:58:31;;;;;;;5.55;4.10;;;4.90;99.90;;;;;;4851438;29;20042;-80
2024/01/29 07:00:59;;;;;;;5.65;4.30;;;4.90;99.90;;;;;;4849211;29;20046;-83
2024/01/29 07:03:26;;;;;;;5.90;3.80;;;4.80;99.90;;;;;;4849153;29;20097;-81
2024/01/29 07:05:51;;;;;;;4.32;3.92;;;4.90;99.90;;;;;;4850256;29;20054;-82
2024/01/29 07:08:17;;;;;;;4.40;3.90;;;4.90;99.90;;;;;;4834412;29;20082;-79
2024/01/29 07:10:44;;;;;;;4.72;4.10;;;4.90;99.90;;;;;;4835202;29;20529;-80
2024/01/29 07:13:10;;;;;;;4.18;3.78;;;4.90;99.90;;;;;;4849276;29;20061;-80
2024/01/29 07:15:36;;;;;;;5.18;4.13;;;4.80;99.90;;;;;;4835494;29;20495;-81
2024/01/29 07:18:02;;;;;;;4.78;4.22;;;4.80;99.90;;;;;;4849110;29;20053;-80
2024/01/29 07:20:29;;;;;;;6.25;4.75;;;4.80;99.90;;;;;;4849400;29;20128;-82
2024/01/29 07:22:56;;;;;;;6.13;4.80;;;4.80;99.90;;;;;;4834583;29;20042;-81
2024/01/29 07:25:22;;;;;;;4.50;4.10;;;4.90;99.90;;;;;;4834005;29;20042;-83
2024/01/29 07:27:48;;;;;;;4.63;4.20;;;4.90;99.90;;;;;;4835279;29;20053;-82
2024/01/29 07:30:14;;;;;;;4.93;4.43;;;5.00;99.90;;;;;;4848307;29;20058;-84
2024/01/29 07:32:40;;;;;;;4.47;3.95;;;5.00;99.90;;;;;;4848090;29;20079;-84
2024/01/29 07:35:07;;;;;;;4.38;3.80;;;5.00;99.90;;;;;;4847610;29;20045;-84
2024/01/29 07:37:32;;;;;;;4.28;3.75;;;5.10;99.90;;;;;;4832153;29;20436;-81
2024/01/29 07:39:58;;;;;;;4.45;3.83;;;5.00;99.90;;;;;;4829095;29;20102;-84
2024/01/29 07:42:24;;;;;;;6.72;5.10;;;5.00;99.90;;;;;;4833972;29;20045;-81
2024/01/29 07:44:51;;;;;;;5.65;4.22;;;5.00;99.90;;;;;;4850119;29;20081;-83
2024/01/29 07:47:17;;;;;;;6.43;4.60;;;4.90;99.90;;;;;;4848860;29;20050;-83
2024/01/29 07:49:43;;;;;;;5.28;4.78;;;4.90;99.90;;;;;;4834885;29;20052;-85
2024/01/29 07:52:09;;;;;;;5.65;5.15;;;4.90;99.90;;;;;;4833650;29;20076;-83
2024/01/29 07:54:35;;;;;;;5.65;4.97;;;4.90;99.90;;;;;;4849584;29;20046;-86
2024/01/29 07:57:01;;;;;;;5.57;5.07;;;4.90;99.90;;;;;;4834661;29;20092;-82
2024/01/29 07:59:27;;;;;;;4.93;4.53;;;4.90;99.90;;;;;;4833866;29;20054;-80
2024/01/29 08:01:53;;;;;;;6.13;4.90;;;4.90;99.90;;;;;;4833749;29;20527;-84
2024/01/29 08:04:18;;;;;;;5.65;4.93;;;5.00;99.90;;;;;;4832719;29;20050;-82
2024/01/29 08:06:44;;;;;;;5.68;5.00;;;5.00;99.90;;;;;;4828878;29;20050;-82
2024/01/29 08:09:10;;;;;;;5.10;4.60;;;5.10;99.90;;;;;;4830267;29;20047;-83
2024/01/29 08:11:36;;;;;;;5.28;4.78;;;5.10;99.90;;;;;;4841006;29;20045;-81
2024/01/29 08:14:02;;;;;;;4.15;3.72;;;5.20;99.90;;;;;;4831362;29;20050;-83
2024/01/29 08:16:27;;;;;;;5.60;5.10;;;5.10;99.90;;;;;;4833654;29;20037;-81
2024/01/29 08:18:53;;;;;;;5.38;4.82;;;5.10;99.90;;;;;;4829161;29;20120;-81
2024/01/29 08:21:19;;;;;;;4.80;4.30;;;5.20;99.90;;;;;;4833540;29;20057;-82
2024/01/29 08:23:44;;;;;;;4.82;4.38;;;5.20;99.90;;;;;;4828768;29;20094;-80
2024/01/29 08:26:10;;;;;;;5.30;4.80;;;5.20;99.90;;;;;;4830217;29;20074;-80
2024/01/29 08:28:36;;;;;;;6.88;5.53;;;5.20;99.90;;;;;;4848657;29;20054;-81
2024/01/29 08:31:02;;;;;;;5.18;4.65;;;5.20;99.90;;;;;;4832480;29;20367;-82
2024/01/29 08:33:29;;;;;;;7.68;4.90;;;5.30;99.90;;;;;;4832784;29;20106;-79
2024/01/29 08:35:55;;;;;;;5.63;5.13;;;5.30;99.90;;;;;;4848310;29;20048;-80
2024/01/29 08:38:22;;;;;;;5.43;4.90;;;5.30;99.90;;;;;;4832141;29;20461;-79
2024/01/29 08:40:49;;;;;;;5.70;4.88;;;5.30;99.90;;;;;;4849090;29;20077;-79
2024/01/29 08:43:14;;;;;;;5.38;4.88;;;5.30;99.90;;;;;;4832112;29;20399;-79
2024/01/29 08:45:40;;;;;;;6.03;5.43;;;5.40;99.90;;;;;;4848089;29;20113;-80
2024/01/29 08:48:07;;;;;;;5.90;5.25;;;5.50;99.90;;;;;;4847726;29;20394;-80
2024/01/29 08:50:33;;;;;;;6.13;5.50;;;5.60;99.90;;;;;;4847386;29;20069;-81
2024/01/29 08:53:00;;;;;;;7.18;4.93;;;5.70;99.90;;;;;;4847810;29;20046;-79
2024/01/29 08:55:25;;;;;;;7.75;5.32;;;5.70;99.90;;;;;;4847239;29;20042;-80
2024/01/29 08:57:51;;;;;;;4.97;4.35;;;5.80;99.90;;;;;;4833807;29;20054;-83
2024/01/29 09:00:17;;;;;;;5.35;4.85;;;5.80;99.90;;;;;;4844189;29;20106;-80
2024/01/29 09:02:43;;;;;;;9.02;5.00;;;5.80;99.90;;;;;;4831996;29;20110;-82
2024/01/29 09:05:09;;;;;;;5.43;4.55;;;5.90;99.90;;;;;;4832481;29;20050;-83
2024/01/29 09:07:35;;;;;;;5.50;4.82;;;6.00;99.90;;;;;;4832971;29;20050;-80
2024/01/29 09:10:01;;;;;;;6.72;5.63;;;6.10;99.90;;;;;;4833280;29;20057;-80
2024/01/29 09:12:26;;;;;;;5.68;4.65;;;6.10;99.90;;;;;;4847944;29;20045;-81
2024/01/29 09:14:52;;;;;;;5.40;4.78;;;6.10;99.90;;;;;;4833489;29;20510;-80
2024/01/29 09:17:18;;;;;;;6.75;4.20;;;6.10;99.90;;;;;;4832279;29;20045;-79
2024/01/29 09:19:45;;;;;;;5.70;4.55;;;6.20;99.90;;;;;;4848302;29;20057;-81
2024/01/29 09:22:11;;;;;;;6.82;4.95;;;6.20;99.90;;;;;;4847909;29;20049;-80
2024/01/29 09:24:37;;;;;;;6.05;4.30;;;6.20;99.90;;;;;;4833108;29;20054;-81
2024/01/29 09:27:03;;;;;;;6.40;4.93;;;6.30;99.90;;;;;;4848242;29;20049;-81
2024/01/29 09:29:29;;;;;;;6.75;5.28;;;6.30;99.90;;;;;;4832790;29;20050;-79
2024/01/29 09:31:55;;;;;;;5.35;4.60;;;6.40;99.90;;;;;;4833775;29;20539;-83
2024/01/29 09:34:22;;;;;;;5.85;5.13;;;6.40;99.90;;;;;;4832591;29;20140;-81
2024/01/29 09:36:48;;;;;;;5.57;5.00;;;6.40;99.90;;;;;;4848969;29;20057;-80
2024/01/29 09:39:13;;;;;;;6.80;5.47;;;6.50;99.90;;;;;;4847079;29;20049;-80
2024/01/29 09:41:40;;;;;;;7.10;4.82;;;6.50;99.90;;;;;;4833365;29;20463;-78
2024/01/29 09:44:07;;;;;;;5.97;5.00;;;6.50;99.90;;;;;;4847890;29;20526;-81
2024/01/29 09:46:37;;;;;;;5.47;4.97;;;6.60;99.90;;;;;;4847953;29;20034;-83
2024/01/29 09:49:04;;;;;;;7.80;5.75;;;6.70;99.90;;;;;;4833580;29;20060;-82
2024/01/29 09:51:32;;;;;;;5.70;4.53;;;6.70;99.90;;;;;;4832696;29;20050;-81
2024/01/29 09:53:59;;;;;;;5.72;4.93;;;6.90;99.90;;;;;;4834737;29;20057;-80
2024/01/29 09:56:25;;;;;;;6.63;5.80;;;6.80;99.90;;;;;;4836109;29;20417;-82
2024/01/29 09:58:51;;;;;;;6.18;5.30;;;6.90;99.90;;;;;;4836915;29;20102;-81
2024/01/29 10:01:20;;;;;;;6.50;5.80;;;7.00;99.90;;;;;;4836209;29;20099;-79
2024/01/29 10:03:46;;;;;;;6.38;5.65;;;7.10;99.90;;;;;;4836143;29;20085;-80
2024/01/29 10:06:13;;;;;;;5.82;4.82;;;7.20;99.90;;;;;;4836929;29;20045;-78
2024/01/29 10:08:39;;;;;;;6.13;5.53;;;7.30;99.90;;;;;;4835859;29;20086;-85
2024/01/29 10:11:07;;;;;;;4.25;3.85;;;7.40;99.90;;;;;;4836788;29;20042;-82
2024/01/29 10:13:32;;;;;;;7.78;5.68;;;7.50;99.90;;;;;;4835691;29;20034;-80
2024/01/29 10:15:58;;;;;;;6.68;4.78;;;7.50;99.90;;;;;;4836577;29;20077;-81
2024/01/29 10:18:24;;;;;;;7.82;4.93;;;7.70;99.90;;;;;;4836217;29;20092;-80
2024/01/29 10:21:06;;;;;;;7.45;5.40;;;7.80;99.90;;;;;;4851278;29;20078;-79
2024/01/29 10:23:32;;;;;;;5.80;4.90;;;7.90;99.90;;;;;;4851872;29;20523;-80
2024/01/29 10:25:59;;;;;;;6.97;5.22;;;8.00;99.90;;;;;;4850628;29;20069;-79
2024/01/29 10:28:29;;;;;;;6.00;4.57;;;8.20;99.90;;;;;;4836671;29;20527;-81
2024/01/29 10:30:55;;;;;;;7.95;5.50;;;8.30;99.90;;;;;;4835803;29;20137;-80
2024/01/29 10:33:22;;;;;;;5.97;4.32;;;8.50;99.90;;;;;;4851320;29;20125;-80
2024/01/29 10:35:49;;;;;;;7.00;4.85;;;8.60;99.90;;;;;;4851412;29;20498;-81
2024/01/29 10:38:20;;;;;;;6.38;5.00;;;8.70;99.90;;;;;;4850643;29;20053;-81
2024/01/29 10:40:46;;;;;;;5.97;5.22;;;8.80;99.90;;;;;;4851539;29;20042;-81
2024/01/29 10:43:21;;;;;;;6.45;5.35;;;9.00;99.90;;;;;;4835278;29;20046;-82
2024/01/29 10:45:51;;;;;;;6.07;5.45;;;9.00;99.90;;;;;;4836481;29;20061;-83
2024/01/29 10:48:17;;;;;;;6.50;5.03;;;8.90;99.90;;;;;;4850946;29;20041;-83
2024/01/29 10:50:43;;;;;;;6.03;5.35;;;8.90;99.90;;;;;;4835072;29;20060;-81
2024/01/29 10:53:12;;;;;;;7.07;5.60;;;8.90;99.90;;;;;;4850773;29;20050;-84
2024/01/29 10:55:39;;;;;;;7.90;5.53;;;9.00;99.90;;;;;;4849948;29;20053;-83
2024/01/29 10:58:07;;;;;;;6.13;5.53;;;9.00;99.90;;;;;;4836066;29;20133;-82
2024/01/29 11:00:35;;;;;;;6.95;5.10;;;9.10;99.90;;;;;;4843709;29;20058;-81
2024/01/29 11:03:03;;;;;;;5.80;5.07;;;9.30;99.90;;;;;;4832934;29;20258;-78
2024/01/29 11:05:31;;;;;;;7.38;5.07;;;9.30;99.90;;;;;;4835600;29;20109;-82
2024/01/29 11:08:00;;;;;;;6.32;4.88;;;9.40;99.90;;;;;;4834513;29;20492;-82
2024/01/29 11:10:29;;;;;;;7.72;5.68;;;9.50;99.90;;;;;;4828664;29;20072;-84
2024/01/29 11:12:57;;;;;;;9.07;5.35;;;9.50;99.90;;;;;;4848579;29;20046;-80
2024/01/29 11:15:24;;;;;;;9.07;5.78;;;9.60;99.90;;;;;;4834570;29;20081;-81
2024/01/29 11:17:49;;;;;;;7.05;5.35;;;9.70;99.90;;;;;;4849151;29;20105;-78
2024/01/29 11:20:17;;;;;;;8.15;5.45;;;9.90;99.90;;;;;;4849883;29;20500;-84
2024/01/29 11:22:57;;;;;;;6.38;5.03;;;9.90;99.90;;;;;;4848773;29;20042;-80
2024/01/29 11:25:24;;;;;;;7.40;5.60;;;9.80;99.90;;;;;;4822699;29;20061;-81
2024/01/29 11:27:50;;;;;;;6.80;5.40;;;9.70;99.90;;;;;;4844200;29;20052;-80
2024/01/29 11:30:27;;;;;;;8.82;5.80;;;9.60;99.90;;;;;;4852298;29;20045;-81
2024/01/29 11:33:09;;;;;;;8.60;5.43;;;9.40;99.90;;;;;;4870024;29;20049;-81
2024/01/29 11:35:36;;;;;;;7.15;5.10;;;9.30;99.90;;;;;;4852202;29;20046;-80
2024/01/29 11:38:07;;;;;;;8.10;6.15;;;9.30;99.90;;;;;;4848348;29;20060;-80
2024/01/29 11:40:36;;;;;;;7.60;6.28;;;9.30;99.90;;;;;;4850526;29;20054;-81
2024/01/29 11:43:14;;;;;;;7.45;5.53;;;9.30;99.90;;;;;;4833865;29;20046;-80
2024/01/29 11:45:40;;;;;;;6.72;5.95;;;9.30;99.90;;;;;;4835432;29;20117;-80
2024/01/29 11:48:14;;;;;;;8.57;5.95;;;9.20;99.90;;;;;;4833996;29;20061;-84
2024/01/29 11:50:43;;;;;;;8.07;6.07;;;9.20;99.90;;;;;;4833165;29;20141;-80
2024/01/29 11:53:11;;;;;;;7.85;6.28;;;9.20;99.90;;;;;;4834570;29;20046;-80
2024/01/29 11:55:37;;;;;;;7.53;6.72;;;9.20;99.90;;;;;;4850345;29;20064;-80
2024/01/29 11:58:03;;;;;;;8.25;6.45;;;9.20;99.90;;;;;;4852865;29;20487;-79
2024/01/29 12:00:28;;;;;;;8.63;6.45;;;9.30;99.90;;;;;;4852151;29;20133;-79
2024/01/29 12:02:54;;;;;;;7.60;6.15;;;9.50;99.90;;;;;;4855320;29;20054;-80
2024/01/29 12:05:20;;;;;;;7.68;5.97;;;9.80;99.90;;;;;;4833909;29;20053;-81
2024/01/29 12:07:49;;;;;;;7.68;5.82;;;10.00;99.90;;;;;;4849879;29;20109;-80
2024/01/29 12:10:16;;;;;;;8.45;6.10;;;9.80;99.90;;;;;;4828666;29;20129;-81
2024/01/29 12:12:42;;;;;;;9.45;6.60;;;9.70;99.90;;;;;;4848874;29;20041;-80
2024/01/29 12:15:10;;;;;;;8.25;6.53;;;9.60;99.90;;;;;;4833749;29;20563;-81
2024/01/29 12:17:40;;;;;;;9.38;6.45;;;9.50;99.90;;;;;;4848355;29;20050;-81
2024/01/29 12:20:06;;;;;;;8.05;6.95;;;9.40;99.90;;;;;;4834072;29;20057;-81
2024/01/29 12:22:32;;;;;;;9.93;7.78;;;9.40;99.90;;;;;;4833290;29;20045;-81
2024/01/29 12:24:59;;;;;;;9.00;7.45;;;9.40;99.90;;;;;;4831540;29;20049;-80
2024/01/29 12:27:25;;;;;;;11.13;7.15;;;9.40;99.90;;;;;;4832144;29;20507;-80
2024/01/29 12:29:53;;;;;;;8.75;7.40;;;9.30;99.90;;;;;;4832242;29;20054;-80
2024/01/29 12:32:20;;;;;;;8.70;7.05;;;9.20;99.90;;;;;;4834246;29;20057;-81
2024/01/29 12:34:47;;;;;;;9.05;7.60;;;9.10;99.90;;;;;;4847385;29;20053;-82
2024/01/29 12:37:23;;;;;;;10.52;8.85;;;9.10;99.90;;;;;;4846344;29;20563;-81
2024/01/29 12:39:53;;;;;;;;;;;9.10;99.90;;;;;;4846140;29;20073;-81
2024/01/29 12:42:20;;;;;;;8.93;8.02;;;9.10;99.90;;;;;;4833015;29;19932;-82
2024/01/29 12:44:48;;;;;;;8.50;7.60;;;9.10;99.90;;;;;;4834290;29;20077;-79
2024/01/29 12:47:15;;;;;;;9.10;8.13;;;9.10;99.90;;;;;;4832973;29;20054;-81
2024/01/29 12:49:40;;;;;;;9.95;8.23;;;9.10;99.90;;;;;;4833919;29;20067;-79
2024/01/29 12:52:09;;;;;;;10.20;8.70;;;9.10;99.90;;;;;;4831976;29;20050;-80
2024/01/29 12:54:34;;;;;;;9.23;8.23;;;9.10;99.90;;;;;;4848574;29;20045;-79